Mad River Glen, Vermont
Current Conditions -  °F | °C
As of 10:51 PM on Tuesday 25 Nov 2014 (Local Time) from KMPV Reporting Station
Few Clouds Few Clouds  
Wind Chill: 33°   Ceiling: Unl
Heat Index: 39°   Visibility: 10mi
Dew Point: 25°   Wind: 8mph
Humidity: 57%   Direction: 250°WSW
Pressure: 30.08"   Gusts: NA
Location:  44.1924°N, 72.8443°W
Report Text: KMPV 260351Z AUTO 25007KT 10SM FEW050 04/M04 A3008 RMK AO2 SLP194 T00391039
Loading
Personal Weather Stations






























Interactive Weather Map New forecast layout! Learn more

10-Day Weather Forecast

Advertisements
Track Severe Weather on mobile